Time;durP1;ratioP1;P1;durP2;ratioP2;P2;SDS_P1;SDS_P2;PMS_P1;PMS_P2;Temp;Humidity;BMP_temperature;BMP_pressure;BME280_temperature;BME280_humidity;BME280_pressure;Samples;Min_cycle;Max_cycle;Signal;HPM_P1;HPM_P2
2022/03/13 07:03:33;;;;;;;7.78;4.57;;;;;;;8.64;47.72;101131.72;5110260;27;20433;-71
2022/03/13 07:06:04;;;;;;;5.80;3.97;;;;;;;8.63;46.04;101133.53;5058315;27;20066;-72
2022/03/13 07:08:32;;;;;;;6.28;3.15;;;;;;;8.72;46.41;101138.16;5073477;28;20041;-71
2022/03/13 07:10:59;;;;;;;11.02;5.20;;;;;;;8.72;47.16;101134.69;5068730;28;20044;-71
2022/03/13 07:13:32;;;;;;;8.80;4.55;;;;;;;8.65;46.59;101133.41;5069416;28;20059;-73
2022/03/13 07:15:59;;;;;;;6.85;3.83;;;;;;;8.64;46.70;101129.09;5057201;28;20040;-73
2022/03/13 07:18:26;;;;;;;7.68;4.55;;;;;;;8.69;47.00;101133.09;5072697;28;20063;-71
2022/03/13 07:20:55;;;;;;;5.95;3.70;;;;;;;8.68;46.49;101136.66;5072908;28;20075;-70
2022/03/13 07:23:22;;;;;;;8.35;4.60;;;;;;;8.74;47.11;101130.19;5056811;28;20117;-72
2022/03/13 07:25:49;;;;;;;6.57;4.05;;;;;;;8.75;45.76;101135.31;5072877;28;20028;-69
2022/03/13 07:28:16;;;;;;;10.82;5.50;;;;;;;8.87;47.43;101134.53;5073018;28;20041;-70
2022/03/13 07:30:43;;;;;;;14.20;3.67;;;;;;;8.96;46.93;101140.00;5072877;28;20063;-71
2022/03/13 07:33:10;;;;;;;5.82;3.78;;;;;;;9.08;46.45;101135.72;5071524;28;20040;-69
2022/03/13 07:35:37;;;;;;;7.45;4.72;;;;;;;9.25;46.11;101140.66;5069401;28;20239;-70
2022/03/13 07:38:06;;;;;;;7.38;5.05;;;;;;;9.51;45.30;101134.50;5073367;28;20040;-71
2022/03/13 07:40:32;;;;;;;7.93;5.07;;;;;;;9.64;44.27;101139.63;5075326;28;20054;-70
2022/03/13 07:42:59;;;;;;;8.00;4.70;;;;;;;9.73;44.07;101125.88;5071690;28;20068;-71
2022/03/13 07:45:26;;;;;;;11.63;5.80;;;;;;;11.80;40.36;101113.81;5072031;28;20044;-72
2022/03/13 07:47:54;;;;;;;10.98;5.93;;;;;;;12.11;38.29;101109.50;5063320;28;20059;-71
2022/03/13 07:50:21;;;;;;;8.80;5.85;;;;;;;12.02;39.00;101114.66;5073304;28;20032;-69
2022/03/13 07:52:48;;;;;;;12.80;6.45;;;;;;;11.99;39.90;101114.88;5073299;28;20051;-72
2022/03/13 07:55:16;;;;;;;11.95;7.07;;;;;;;11.64;39.04;101116.81;5055975;28;20068;-70
2022/03/13 07:57:43;;;;;;;13.38;6.65;;;;;;;11.19;40.04;101124.69;5072142;28;20124;-71
2022/03/13 08:00:15;;;;;;;8.13;4.85;;;;;;;10.58;41.26;101126.75;5070991;28;20084;-69
2022/03/13 08:02:46;;;;;;;22.65;6.43;;;;;;;10.26;41.21;101122.16;5038255;28;20080;-70
2022/03/13 08:05:14;;;;;;;14.93;5.68;;;;;;;10.17;43.22;101117.56;5051993;28;20507;-71
2022/03/13 08:07:42;;;;;;;19.92;5.45;;;;;;;10.06;42.17;101126.16;5049178;28;20337;-71
2022/03/13 08:10:20;;;;;;;15.15;5.28;;;;;;;9.96;42.87;101126.91;5055707;28;20091;-71
2022/03/13 08:12:48;;;;;;;8.25;5.10;;;;;;;9.95;44.10;101127.84;5050768;28;20076;-73
2022/03/13 08:15:14;;;;;;;12.70;5.70;;;;;;;9.92;43.86;101131.53;5045439;28;20052;-70
2022/03/13 08:17:42;;;;;;;7.68;4.82;;;;;;;10.01;43.79;101125.66;5046180;28;20041;-70
2022/03/13 08:20:11;;;;;;;6.55;4.10;;;;;;;10.01;42.59;101122.22;5043981;28;20131;-71
2022/03/13 08:22:38;;;;;;;11.00;5.20;;;;;;;10.02;43.57;101123.88;5025634;28;20103;-71
2022/03/13 08:25:06;;;;;;;8.05;4.45;;;;;;;10.06;43.91;101123.53;5036265;28;20487;-68
2022/03/13 08:27:34;;;;;;;10.45;5.15;;;;;;;10.28;42.49;101123.72;5040793;28;20099;-73
2022/03/13 08:30:01;;;;;;;10.18;4.28;;;;;;;10.34;41.93;101120.63;5044124;28;20049;-72
2022/03/13 08:32:28;;;;;;;9.35;4.55;;;;;;;10.71;41.53;101109.97;5049901;28;20048;-70
2022/03/13 08:34:55;;;;;;;14.60;4.63;;;;;;;10.98;40.75;101122.84;5058709;28;20036;-70
2022/03/13 08:37:22;;;;;;;9.82;4.90;;;;;;;11.69;40.52;101112.03;5050661;28;20049;-71
2022/03/13 08:39:48;;;;;;;8.38;4.78;;;;;;;12.13;38.41;101114.63;5048854;28;20075;-69
2022/03/13 08:42:15;;;;;;;6.70;4.00;;;;;;;12.05;38.63;101114.41;5046431;28;20077;-71
2022/03/13 08:44:43;;;;;;;8.55;4.40;;;;;;;12.46;38.01;101123.31;5041883;28;20056;-71
2022/03/13 08:47:10;;;;;;;9.20;5.32;;;;;;;12.31;39.54;101121.88;5045095;28;20067;-70
2022/03/13 08:49:37;;;;;;;10.45;4.85;;;;;;;11.78;38.33;101119.19;5049703;28;20044;-70
2022/03/13 08:52:04;;;;;;;8.90;5.28;;;;;;;11.96;38.14;101111.66;5045000;28;20100;-70
2022/03/13 08:54:31;;;;;;;7.75;4.55;;;;;;;12.08;38.01;101108.91;5039385;28;20131;-71
2022/03/13 08:56:58;;;;;;;7.82;4.63;;;;;;;12.47;37.62;101105.69;5037336;28;20077;-72
2022/03/13 08:59:25;;;;;;;8.55;5.03;;;;;;;13.17;36.46;101099.78;5037757;28;20045;-70
2022/03/13 09:01:52;;;;;;;6.20;3.67;;;;;;;13.01;36.77;101099.38;5044223;28;20102;-67
2022/03/13 09:04:20;;;;;;;6.00;4.00;;;;;;;12.97;36.89;101095.31;5058374;28;20063;-76
2022/03/13 09:06:46;;;;;;;9.32;4.63;;;;;;;13.01;37.48;101102.84;5040020;28;20130;-69
2022/03/13 09:09:13;;;;;;;10.43;4.90;;;;;;;12.93;37.48;101093.91;5056134;28;20041;-69
2022/03/13 09:11:40;;;;;;;13.38;5.18;;;;;;;13.07;36.95;101106.78;5058958;28;20051;-70
2022/03/13 09:14:08;;;;;;;8.60;4.57;;;;;;;12.99;37.98;101096.91;5057563;28;20102;-75
2022/03/13 09:16:41;;;;;;;7.40;4.55;;;;;;;13.11;37.15;101093.22;5061781;28;20055;-71
2022/03/13 09:19:10;;;;;;;7.50;4.22;;;;;;;14.17;37.52;101102.38;5058203;28;20513;-73
2022/03/13 09:21:38;;;;;;;10.23;4.05;;;;;;;15.34;34.71;101097.69;5057107;28;20122;-74
2022/03/13 09:24:06;;;;;;;9.93;4.70;;;;;;;15.92;33.10;101088.56;5058705;28;20052;-74
2022/03/13 09:26:34;;;;;;;7.72;4.68;;;;;;;15.34;33.17;101095.06;5056230;28;20078;-74
2022/03/13 09:29:01;;;;;;;11.77;4.97;;;;;;;14.84;35.78;101104.13;5064098;28;20075;-75
2022/03/13 09:31:28;;;;;;;7.93;4.40;;;;;;;14.93;35.55;101087.41;5060066;28;20044;-73
2022/03/13 09:33:55;;;;;;;9.25;4.68;;;;;;;15.25;34.87;101093.25;5058380;28;20044;-74
2022/03/13 09:36:24;;;;;;;8.77;4.97;;;;;;;15.17;35.96;101090.44;5041028;28;20057;-71
2022/03/13 09:38:51;;;;;;;7.28;4.18;;;;;;;15.33;35.54;101082.78;5059189;28;20068;-74
2022/03/13 09:41:18;;;;;;;7.68;3.95;;;;;;;15.44;35.08;101074.69;5059244;28;20039;-71
2022/03/13 09:43:44;;;;;;;8.85;5.60;;;;;;;15.12;35.96;101078.63;5056290;28;20040;-73
2022/03/13 09:46:12;;;;;;;10.18;5.60;;;;;;;15.52;35.29;101066.84;5058602;28;20040;-72
2022/03/13 09:48:39;;;;;;;9.27;4.88;;;;;;;16.03;35.74;101070.66;5058722;28;20037;-72
2022/03/13 09:51:09;;;;;;;10.82;5.53;;;;;;;16.12;35.00;101070.63;5058102;28;20040;-71
2022/03/13 09:53:38;;;;;;;8.52;4.60;;;;;;;16.05;34.94;101058.94;5030786;28;20043;-72
2022/03/13 09:56:05;;;;;;;14.63;5.00;;;;;;;15.94;35.53;101062.78;5059964;28;20141;-72
2022/03/13 09:58:33;;;;;;;11.57;4.93;;;;;;;15.54;35.36;101064.91;5059289;28;20097;-71
2022/03/13 10:01:00;;;;;;;9.43;5.07;;;;;;;15.89;36.56;101062.38;5062146;28;20068;-70
2022/03/13 10:03:27;;;;;;;13.43;5.18;;;;;;;15.62;35.85;101070.31;5058768;28;20053;-71
2022/03/13 10:05:56;;;;;;;7.50;5.05;;;;;;;15.87;34.74;101067.00;5042930;28;20139;-72
2022/03/13 10:08:27;;;;;;;10.30;5.45;;;;;;;15.95;36.24;101064.44;5057279;28;20048;-71
2022/03/13 10:10:55;;;;;;;8.93;4.83;;;;;;;16.04;35.45;101067.84;5058039;28;20036;-72
2022/03/13 10:13:35;;;;;;;8.35;4.72;;;;;;;16.13;35.60;101056.38;5075768;28;20051;-71
2022/03/13 10:16:04;;;;;;;10.80;5.22;;;;;;;16.05;34.73;101060.75;5042490;28;20051;-70
2022/03/13 10:18:30;;;;;;;10.40;4.95;;;;;;;16.42;35.18;101062.38;5058056;28;20129;-71
2022/03/13 10:21:07;;;;;;;7.75;4.88;;;;;;;16.83;34.03;101056.44;5061792;28;20127;-72
2022/03/13 10:23:33;;;;;;;8.23;4.90;;;;;;;16.48;33.87;101060.94;5056451;28;20043;-71
2022/03/13 10:26:02;;;;;;;29.83;5.60;;;;;;;16.81;35.19;101052.28;5059941;28;20044;-73
2022/03/13 10:28:31;;;;;;;8.73;5.10;;;;;;;16.98;33.11;101049.59;5062910;28;20036;-74
2022/03/13 10:31:11;;;;;;;10.80;4.82;;;;;;;16.94;33.70;101049.06;5078407;28;20048;-72
2022/03/13 10:33:52;;;;;;;11.00;5.38;;;;;;;17.20;33.19;101049.06;5066518;28;20051;-73
2022/03/13 10:36:24;;;;;;;9.45;5.20;;;;;;;17.07;32.58;101044.19;5073415;28;20040;-72
2022/03/13 10:38:53;;;;;;;13.98;5.25;;;;;;;17.08;33.39;101051.16;5059749;28;20503;-72
2022/03/13 10:41:42;;;;;;;9.35;4.85;;;;;;;17.43;33.49;101032.50;5059496;28;20095;-72
2022/03/13 10:44:13;;;;;;;9.40;5.45;;;;;;;17.26;32.84;101032.53;5054501;28;20047;-72
2022/03/13 10:46:42;;;;;;;8.70;5.22;;;;;;;17.40;34.03;101039.97;5043461;28;20105;-73
2022/03/13 10:49:09;;;;;;;8.70;4.90;;;;;;;17.63;33.04;101041.91;5025015;28;20127;-71
2022/03/13 10:51:40;;;;;;;13.93;5.47;;;;;;;17.78;33.06;101030.50;5058702;28;20048;-72
2022/03/13 10:54:07;;;;;;;9.63;5.10;;;;;;;17.71;33.04;101039.31;5050076;28;20048;-73
2022/03/13 10:56:35;;;;;;;9.07;4.97;;;;;;;17.69;32.99;101043.94;5061698;28;20084;-72
2022/03/13 10:59:17;;;;;;;11.20;5.90;;;;;;;17.89;33.25;101040.03;5064355;28;20032;-72
2022/03/13 11:01:44;;;;;;;8.27;5.28;;;;;;;17.77;32.46;101034.16;5063277;28;20112;-73
2022/03/13 11:04:10;;;;;;;8.30;4.82;;;;;;;17.53;33.18;101037.69;5067292;28;20075;-73
2022/03/13 11:06:37;;;;;;;8.48;4.97;;;;;;;17.47;32.93;101028.56;5060079;28;20049;-71
2022/03/13 11:09:05;;;;;;;11.07;5.70;;;;;;;17.33;34.33;101025.66;5058861;28;20041;-73
2022/03/13 11:11:32;;;;;;;10.18;5.30;;;;;;;17.13;34.37;101021.50;5056428;28;20052;-73
2022/03/13 11:14:02;;;;;;;8.40;5.40;;;;;;;17.30;34.05;101018.84;5052411;28;20060;-73
2022/03/13 11:16:32;;;;;;;8.77;4.68;;;;;;;17.67;33.69;101015.88;5041322;28;20048;-74
2022/03/13 11:19:03;;;;;;;9.85;5.43;;;;;;;18.18;33.20;101012.03;5038768;28;20125;-69
2022/03/13 11:21:31;;;;;;;9.40;5.05;;;;;;;18.67;31.98;101006.63;5055700;28;20048;-70
2022/03/13 11:24:00;;;;;;;14.35;5.30;;;;;;;18.72;32.04;101009.63;5056403;28;20041;-73
2022/03/13 11:26:29;;;;;;;11.23;6.10;;;;;;;18.21;33.87;101013.59;5055469;28;20041;-72
2022/03/13 11:28:56;;;;;;;10.93;5.45;;;;;;;17.83;32.87;101006.97;5054854;28;20126;-72
2022/03/13 11:31:31;;;;;;;8.80;5.28;;;;;;;18.04;33.76;101011.84;5049627;28;20049;-73
2022/03/13 11:34:18;;;;;;;9.75;5.22;;;;;;;18.37;33.46;101005.63;5057392;28;20078;-73
2022/03/13 11:36:47;;;;;;;18.15;6.30;;;;;;;18.29;33.00;101003.78;5054960;28;20049;-71
2022/03/13 11:39:25;;;;;;;9.35;5.40;;;;;;;17.99;33.60;100990.22;5057402;28;20072;-73
2022/03/13 11:41:52;;;;;;;8.43;4.93;;;;;;;17.75;33.87;100993.66;5049740;28;20119;-71
2022/03/13 11:44:39;;;;;;;11.43;5.57;;;;;;;17.90;34.02;100992.03;5056944;28;20040;-72
2022/03/13 11:47:26;;;;;;;7.07;4.20;;;;;;;17.88;33.72;100988.69;5056025;28;20050;-71
2022/03/13 11:49:53;;;;;;;11.38;5.57;;;;;;;18.58;33.39;100982.88;5056836;28;20045;-74
2022/03/13 11:52:33;;;;;;;11.20;5.90;;;;;;;18.88;32.32;100971.53;5055615;28;20056;-73
2022/03/13 11:55:02;;;;;;;10.43;5.65;;;;;;;19.09;32.00;100974.47;5058923;28;20076;-70
2022/03/13 11:57:43;;;;;;;9.13;5.70;;;;;;;18.49;33.15;100972.38;5057253;28;20040;-73
2022/03/13 12:03:12;;;;;;;15.50;5.82;;;;;;;19.33;31.91;100963.81;5035661;28;20582;-71
2022/03/13 12:05:49;;;;;;;10.00;5.30;;;;;;;19.12;31.70;100958.19;5063837;28;20449;-72
2022/03/13 12:08:21;;;;;;;16.73;6.00;;;;;;;18.72;33.10;100948.41;5063175;28;20098;-73
2022/03/13 12:10:48;;;;;;;;;;;;;;;18.46;33.17;100946.13;5063677;28;20119;-71
2022/03/13 12:13:16;;;;;;;7.80;5.07;;;;;;;18.75;34.05;100941.94;5062583;28;19947;-73
2022/03/13 12:15:44;;;;;;;12.90;5.65;;;;;;;19.00;32.09;100936.38;5059088;28;20041;-73
2022/03/13 12:18:16;;;;;;;11.85;5.95;;;;;;;18.57;35.11;100949.28;5063327;28;20052;-70
2022/03/13 12:20:44;;;;;;;11.85;5.50;;;;;;;18.81;33.41;100936.75;5062593;28;20063;-72
2022/03/13 12:23:10;;;;;;;9.45;5.25;;;;;;;18.81;32.69;100935.94;5060542;28;20052;-71
2022/03/13 12:25:37;;;;;;;13.48;5.53;;;;;;;19.11;32.85;100944.06;5061243;28;20051;-72
2022/03/13 12:28:05;;;;;;;8.43;5.32;;;;;;;19.04;32.84;100927.03;5063200;28;20051;-73
2022/03/13 12:30:34;;;;;;;9.10;5.53;;;;;;;19.50;33.60;100931.59;5060902;28;20036;-72
2022/03/13 12:33:02;;;;;;;7.95;5.22;;;;;;;19.31;33.02;100933.84;5047807;28;20121;-71
2022/03/13 12:35:31;;;;;;;11.95;5.45;;;;;;;19.34;34.09;100934.31;5057091;28;20052;-71
2022/03/13 12:38:00;;;;;;;7.43;4.85;;;;;;;19.82;31.82;100913.56;5058089;28;20051;-73
2022/03/13 12:40:29;;;;;;;12.00;5.95;;;;;;;19.62;31.81;100925.69;5062043;28;20098;-71
2022/03/13 12:42:57;;;;;;;7.50;5.00;;;;;;;19.34;32.59;100919.16;5060977;28;20060;-72
2022/03/13 12:45:24;;;;;;;8.20;4.28;;;;;;;19.59;32.64;100926.03;5065795;28;20044;-72
2022/03/13 12:47:55;;;;;;;14.40;5.43;;;;;;;19.52;32.39;100927.75;5062242;28;20046;-73
2022/03/13 12:50:26;;;;;;;7.43;4.53;;;;;;;19.60;33.09;100925.03;5059092;28;20501;-74
2022/03/13 12:52:59;;;;;;;9.07;5.28;;;;;;;19.52;33.21;100914.41;5063782;28;20056;-74
2022/03/13 12:55:26;;;;;;;10.65;5.20;;;;;;;19.45;33.24;100921.44;5060661;28;20052;-72
2022/03/13 12:57:58;;;;;;;8.98;5.45;;;;;;;19.80;32.21;100910.28;5063471;28;20040;-73
2022/03/13 13:00:35;;;;;;;9.48;5.40;;;;;;;19.01;34.12;100921.22;5061987;28;20055;-73
2022/03/13 13:03:06;;;;;;;9.02;5.20;;;;;;;19.25;33.76;100907.91;5061331;28;20044;-73
2022/03/13 13:08:36;;;;;;;9.65;5.40;;;;;;;19.77;32.18;100905.28;5107102;27;20482;-71
2022/03/13 13:11:09;;;;;;;16.45;5.63;;;;;;;19.56;32.70;100910.41;5094534;28;20043;-73
2022/03/13 13:13:36;;;;;;;9.63;4.97;;;;;;;19.62;33.28;100901.72;5092423;28;20051;-71
2022/03/13 13:16:02;;;;;;;12.75;4.68;;;;;;;19.75;33.38;100906.47;5095521;28;20048;-73
2022/03/13 13:18:32;;;;;;;7.75;4.55;;;;;;;19.69;31.81;100899.19;5108681;28;20043;-75
2022/03/13 13:21:09;;;;;;;10.63;5.07;;;;;;;19.68;31.77;100893.00;5095756;28;20060;-72
2022/03/13 13:23:37;;;;;;;10.13;4.72;;;;;;;19.33;33.77;100899.88;5072661;28;20051;-72
2022/03/13 13:26:04;;;;;;;8.10;4.45;;;;;;;19.13;33.00;100898.59;5074452;28;20052;-70
2022/03/13 13:28:31;;;;;;;8.95;5.25;;;;;;;19.11;33.38;100897.94;5094541;28;20056;-72
2022/03/13 13:30:57;;;;;;;8.90;5.30;;;;;;;19.38;33.07;100899.16;5070619;28;20044;-71
2022/03/13 13:33:30;;;;;;;8.00;4.55;;;;;;;19.51;33.17;100899.44;5092801;28;20044;-72
2022/03/13 13:35:59;;;;;;;9.30;5.47;;;;;;;19.65;32.85;100900.53;5094640;28;20046;-72
2022/03/13 13:38:29;;;;;;;9.40;5.53;;;;;;;19.75;31.87;100891.28;5099512;28;20054;-72
2022/03/13 13:41:02;;;;;;;14.93;5.75;;;;;;;19.70;32.63;100899.00;5100514;28;20045;-72
2022/03/13 13:43:29;;;;;;;11.63;6.10;;;;;;;19.75;32.69;100901.97;5073993;28;20040;-71
2022/03/13 13:46:03;;;;;;;10.00;5.32;;;;;;;19.63;32.98;100892.72;5083974;28;20131;-73
2022/03/13 13:48:31;;;;;;;9.20;5.63;;;;;;;20.13;31.88;100892.22;5087173;28;20063;-71
2022/03/13 13:51:22;;;;;;;11.25;5.55;;;;;;;19.94;31.80;100890.84;5095889;28;20104;-70
2022/03/13 13:53:53;;;;;;;11.90;5.53;;;;;;;19.78;32.24;100885.63;5080282;28;20457;-74
2022/03/13 13:56:29;;;;;;;6.05;3.88;;;;;;;19.79;32.36;100889.09;5084019;28;20164;-72
2022/03/13 13:58:58;;;;;;;13.88;5.50;;;;;;;19.85;32.91;100883.91;5093709;28;20043;-73
2022/03/13 14:01:27;;;;;;;9.07;5.40;;;;;;;19.56;32.43;100886.44;5086286;28;20044;-71
2022/03/13 14:03:55;;;;;;;8.15;5.32;;;;;;;19.96;32.65;100885.34;5086828;28;20066;-73
2022/03/13 14:06:21;;;;;;;9.02;5.25;;;;;;;19.87;34.04;100887.22;5084591;28;20512;-73
2022/03/13 14:08:48;;;;;;;10.57;6.20;;;;;;;19.91;31.99;100869.84;5085722;28;20060;-73
2022/03/13 14:11:17;;;;;;;9.73;5.57;;;;;;;20.02;31.85;100882.81;5083429;28;20044;-73
2022/03/13 14:13:45;;;;;;;12.35;6.07;;;;;;;19.86;32.56;100898.91;5091955;28;20131;-72
2022/03/13 14:16:12;;;;;;;9.95;5.30;;;;;;;19.84;32.04;100884.91;5089321;28;20047;-73
2022/03/13 14:18:39;;;;;;;10.45;5.63;;;;;;;19.54;33.19;100885.75;5088585;28;20040;-72
2022/03/13 14:21:05;;;;;;;8.32;5.05;;;;;;;19.87;32.79;100884.56;5075003;28;20041;-71
2022/03/13 14:23:32;;;;;;;10.43;5.35;;;;;;;19.77;32.11;100881.28;5071780;28;20044;-73
2022/03/13 14:25:59;;;;;;;11.63;4.90;;;;;;;19.35;32.99;100888.84;5076320;28;20634;-75
2022/03/13 14:28:25;;;;;;;9.55;5.38;;;;;;;19.64;33.67;100886.38;5076615;28;20037;-73
2022/03/13 14:30:54;;;;;;;8.90;5.13;;;;;;;19.86;32.32;100876.75;5071685;28;20130;-72
2022/03/13 14:33:21;;;;;;;10.20;5.43;;;;;;;20.03;32.74;100871.16;5060165;28;20075;-74
2022/03/13 14:35:48;;;;;;;9.68;5.72;;;;;;;19.50;32.39;100873.78;5078983;28;20032;-72
2022/03/13 14:38:15;;;;;;;10.65;5.88;;;;;;;19.12;33.01;100880.97;5060345;28;20170;-71
2022/03/13 14:40:42;;;;;;;11.75;5.82;;;;;;;19.22;33.18;100886.91;5073090;28;20037;-71
2022/03/13 14:43:10;;;;;;;10.98;6.25;;;;;;;19.35;33.88;100883.53;5071554;28;20514;-73
2022/03/13 14:45:38;;;;;;;9.57;5.60;;;;;;;19.42;32.80;100884.47;5086447;28;20040;-72
2022/03/13 14:48:06;;;;;;;11.90;5.70;;;;;;;19.30;32.45;100873.56;5063886;28;20067;-72
2022/03/13 14:50:33;;;;;;;11.20;5.28;;;;;;;19.27;33.12;100873.91;5074884;28;20044;-72
2022/03/13 14:52:59;;;;;;;18.20;6.55;;;;;;;19.38;33.35;100874.34;5064126;28;20047;-74
2022/03/13 14:55:26;;;;;;;9.75;5.53;;;;;;;19.45;32.47;100881.47;5074750;28;20094;-72
2022/03/13 14:57:53;;;;;;;11.63;5.47;;;;;;;19.49;32.40;100869.44;5071871;28;20048;-73
2022/03/13 15:00:20;;;;;;;12.13;5.72;;;;;;;19.19;32.42;100876.59;5075368;28;20040;-72
2022/03/13 15:02:46;;;;;;;12.55;5.75;;;;;;;19.13;33.57;100874.63;5056864;28;20043;-73
2022/03/13 15:05:15;;;;;;;6.88;4.63;;;;;;;19.03;32.89;100868.63;5072625;28;20119;-74
2022/03/13 15:07:41;;;;;;;10.25;5.72;;;;;;;19.03;34.60;100871.31;5061231;28;20052;-73
2022/03/13 15:10:09;;;;;;;10.07;5.93;;;;;;;18.88;33.58;100878.34;5067483;28;20077;-72
2022/03/13 15:12:35;;;;;;;11.82;5.82;;;;;;;18.57;34.49;100883.56;5066031;28;20087;-74
2022/03/13 15:15:05;;;;;;;7.18;4.40;;;;;;;18.29;35.49;100892.06;5070403;28;20040;-73
2022/03/13 15:17:32;;;;;;;11.65;4.28;;;;;;;17.98;35.57;100879.53;5073222;28;20071;-72
2022/03/13 15:19:59;;;;;;;7.15;3.72;;;;;;;17.90;36.92;100891.03;5075079;28;20036;-74
2022/03/13 15:22:27;;;;;;;7.13;3.80;;;;;;;17.69;36.83;100887.97;5075893;28;20040;-71
2022/03/13 15:24:54;;;;;;;8.27;3.22;;;;;;;17.58;37.18;100889.28;5075786;28;20075;-71
2022/03/13 15:27:20;;;;;;;5.90;3.13;;;;;;;17.53;36.76;100891.59;5055752;28;20090;-74
2022/03/13 15:29:47;;;;;;;10.05;3.08;;;;;;;17.46;37.08;100885.25;5081175;28;20043;-73
2022/03/13 15:32:13;;;;;;;6.28;3.63;;;;;;;17.41;37.31;100887.56;5082976;28;20092;-75
2022/03/13 15:37:20;;;;;;;7.32;3.78;;;;;;;17.67;37.13;100896.28;5113180;27;20417;-72
2022/03/13 15:39:46;;;;;;;4.50;2.80;;;;;;;17.59;37.32;100894.44;5091358;28;20047;-72
2022/03/13 15:42:13;;;;;;;6.07;3.13;;;;;;;17.58;38.08;100891.94;5088198;28;20040;-71
2022/03/13 15:44:40;;;;;;;5.65;3.00;;;;;;;17.72;37.23;100887.66;5097033;28;20040;-73
2022/03/13 15:47:07;;;;;;;6.78;2.90;;;;;;;17.92;37.80;100888.19;5091064;28;20388;-74
2022/03/13 15:49:34;;;;;;;3.78;2.33;;;;;;;18.03;37.12;100887.88;5097221;28;20059;-73
2022/03/13 15:52:03;;;;;;;6.03;3.00;;;;;;;17.96;37.17;100882.38;5095563;28;20052;-74
2022/03/13 15:54:35;;;;;;;5.97;3.10;;;;;;;17.74;37.25;100883.03;5093581;28;20047;-71
2022/03/13 15:57:02;;;;;;;;;;;;;;;17.46;38.72;100882.59;5084668;28;20101;-74
2022/03/13 15:59:29;;;;;;;4.43;2.50;;;;;;;17.27;38.20;100885.50;5096198;28;19923;-74
2022/03/13 16:01:56;;;;;;;4.13;2.58;;;;;;;17.04;39.43;100895.00;5088712;28;20048;-73
2022/03/13 16:04:22;;;;;;;4.43;2.55;;;;;;;16.95;38.58;100893.28;5092473;28;20055;-73
2022/03/13 16:06:49;;;;;;;7.80;2.83;;;;;;;16.94;39.42;100891.66;5091914;28;20110;-71
2022/03/13 16:09:15;;;;;;;7.32;2.72;;;;;;;16.99;39.73;100897.31;5095464;28;20075;-73
2022/03/13 16:11:44;;;;;;;5.57;2.22;;;;;;;17.06;39.42;100895.69;5089902;28;20048;-71
2022/03/13 16:14:11;;;;;;;5.35;2.80;;;;;;;17.26;38.78;100886.50;5096309;28;20139;-72
2022/03/13 16:16:38;;;;;;;5.53;2.95;;;;;;;17.30;38.93;100895.81;5090008;28;20069;-73
2022/03/13 16:19:07;;;;;;;5.78;2.85;;;;;;;17.23;39.13;100900.94;5107673;28;20131;-73
2022/03/13 16:21:34;;;;;;;3.70;2.40;;;;;;;17.09;39.36;100900.69;5097299;28;20043;-72
2022/03/13 16:24:01;;;;;;;5.00;3.22;;;;;;;17.10;39.49;100902.34;5106281;28;20103;-76
2022/03/13 16:26:28;;;;;;;7.75;3.75;;;;;;;17.08;38.83;100897.19;5106527;28;20067;-73
2022/03/13 16:28:56;;;;;;;6.05;3.15;;;;;;;16.99;39.40;100902.63;5099402;28;20044;-73
2022/03/13 16:31:23;;;;;;;8.80;3.67;;;;;;;16.92;39.61;100902.41;5092774;28;20048;-74
2022/03/13 16:33:49;;;;;;;5.13;3.20;;;;;;;16.88;40.10;100902.88;5089763;28;20050;-74
2022/03/13 16:36:16;;;;;;;7.63;3.35;;;;;;;16.83;40.31;100902.53;5095351;28;20490;-74
2022/03/13 16:38:46;;;;;;;5.95;3.33;;;;;;;16.80;40.24;100904.66;5093313;28;20113;-72
2022/03/13 16:41:13;;;;;;;5.47;3.13;;;;;;;16.67;40.54;100902.44;5090102;28;20039;-73
2022/03/13 16:43:40;;;;;;;7.43;4.28;;;;;;;16.52;40.95;100905.78;5093997;28;20047;-72
2022/03/13 16:46:12;;;;;;;6.13;3.95;;;;;;;16.41;40.90;100906.06;5093868;28;20048;-73
2022/03/13 16:48:39;;;;;;;7.85;4.13;;;;;;;16.25;41.64;100900.59;5081219;28;20120;-72
2022/03/13 16:51:06;;;;;;;6.38;3.60;;;;;;;16.13;41.87;100907.94;5082199;28;20460;-72
2022/03/13 16:53:33;;;;;;;13.13;4.53;;;;;;;16.09;42.24;100914.53;5080477;28;20047;-72
2022/03/13 16:55:59;;;;;;;8.35;3.90;;;;;;;16.12;42.00;100916.03;5078009;28;20040;-73
2022/03/13 16:58:26;;;;;;;6.50;3.88;;;;;;;16.05;42.74;100921.09;5080771;28;20768;-74
2022/03/13 17:00:54;;;;;;;11.63;4.28;;;;;;;16.07;42.60;100918.34;5079623;28;20097;-73
2022/03/13 17:03:22;;;;;;;6.35;3.35;;;;;;;15.99;42.76;100917.41;5080984;28;20561;-72
2022/03/13 17:05:48;;;;;;;7.47;3.78;;;;;;;15.96;42.19;100920.38;5078703;28;20120;-72
2022/03/13 17:08:15;;;;;;;5.45;3.30;;;;;;;15.93;42.54;100931.25;5077712;28;20055;-74
2022/03/13 17:10:41;;;;;;;7.95;4.07;;;;;;;15.91;42.40;100927.94;5075922;28;20131;-74
2022/03/13 17:13:08;;;;;;;9.63;3.85;;;;;;;15.82;43.26;100932.31;5091634;28;20104;-73
2022/03/13 17:15:35;;;;;;;6.57;3.45;;;;;;;15.69;43.76;100941.59;5081055;28;20047;-75
2022/03/13 17:18:04;;;;;;;6.85;3.85;;;;;;;15.64;43.84;100943.84;5078333;28;20553;-72
2022/03/13 17:20:33;;;;;;;7.47;3.95;;;;;;;15.62;43.86;100943.19;5080955;28;20043;-74
2022/03/13 17:22:59;;;;;;;7.43;4.18;;;;;;;15.55;43.95;100942.94;5078709;28;20028;-72
2022/03/13 17:25:27;;;;;;;7.78;4.40;;;;;;;15.49;43.54;100947.97;5076313;28;20068;-76
2022/03/13 17:27:55;;;;;;;6.75;4.10;;;;;;;15.45;43.31;100951.91;5077603;28;20036;-73
2022/03/13 17:30:22;;;;;;;9.50;3.83;;;;;;;15.36;44.70;100952.78;5073376;28;20136;-73
2022/03/13 17:32:48;;;;;;;7.68;4.07;;;;;;;15.27;44.57;100958.16;5079624;28;20043;-73
2022/03/13 17:35:15;;;;;;;7.80;4.40;;;;;;;15.32;45.18;100967.28;5072217;28;20051;-73
2022/03/13 17:37:43;;;;;;;10.88;4.63;;;;;;;15.30;44.32;100969.28;5080132;28;20038;-73
2022/03/13 17:40:11;;;;;;;9.13;5.00;;;;;;;15.24;44.87;100969.81;5079131;28;20055;-72
2022/03/13 17:42:37;;;;;;;17.98;5.00;;;;;;;15.21;44.15;100971.91;5082155;28;20125;-74
2022/03/13 17:45:04;;;;;;;16.25;4.80;;;;;;;15.19;43.45;100972.06;5083745;28;20066;-73
2022/03/13 17:47:31;;;;;;;10.32;4.80;;;;;;;15.13;44.35;100985.88;5084848;28;20064;-71
2022/03/13 17:49:58;;;;;;;7.88;4.85;;;;;;;15.12;43.92;100980.69;5084737;28;20070;-74
2022/03/13 17:52:25;;;;;;;7.18;4.30;;;;;;;15.08;44.19;100987.28;5077849;28;20040;-73
2022/03/13 17:54:54;;;;;;;8.25;4.32;;;;;;;15.10;44.59;100991.44;5078112;28;20044;-72
2022/03/13 17:57:21;;;;;;;8.45;4.45;;;;;;;15.04;44.88;100994.66;5077935;28;20124;-73
2022/03/13 17:59:48;;;;;;;6.63;3.78;;;;;;;15.05;43.91;101004.28;5076932;28;20051;-74
2022/03/13 18:02:15;;;;;;;7.93;4.15;;;;;;;15.11;44.24;101005.50;5073183;28;20068;-75
2022/03/13 18:04:41;;;;;;;12.85;4.55;;;;;;;15.03;44.34;101008.88;5081269;28;20162;-72
2022/03/13 18:07:10;;;;;;;10.20;4.40;;;;;;;15.01;44.33;101004.72;5078619;28;20063;-73
2022/03/13 18:09:37;;;;;;;7.25;3.85;;;;;;;15.01;44.87;101020.59;5077154;28;20072;-72
2022/03/13 18:12:06;;;;;;;7.43;4.13;;;;;;;14.95;46.22;101014.03;5079716;28;20081;-72
2022/03/13 18:14:33;;;;;;;6.95;3.92;;;;;;;14.95;45.90;101014.03;5077800;28;20799;-73
2022/03/13 18:16:59;;;;;;;6.75;3.63;;;;;;;15.01;45.17;101020.59;5076075;28;20051;-73
2022/03/13 18:19:26;;;;;;;5.13;3.28;;;;;;;14.96;45.86;101018.38;5075407;28;20036;-74
2022/03/13 18:21:53;;;;;;;7.72;3.42;;;;;;;14.95;45.56;101029.91;5079144;28;20052;-73
2022/03/13 18:24:21;;;;;;;5.22;3.10;;;;;;;14.92;46.03;101032.84;5075456;28;20044;-72
2022/03/13 18:26:51;;;;;;;6.38;3.03;;;;;;;14.92;46.22;101030.19;5078924;28;20036;-72
2022/03/13 18:29:19;;;;;;;4.97;2.50;;;;;;;14.93;46.28;101039.78;5072070;28;20048;-72
2022/03/13 18:31:45;;;;;;;3.42;2.00;;;;;;;15.06;45.67;101040.31;5075550;28;20051;-73
2022/03/13 18:34:13;;;;;;;3.90;2.42;;;;;;;15.02;45.46;101040.78;5076033;28;20056;-72
2022/03/13 18:36:39;;;;;;;5.32;2.20;;;;;;;14.99;45.44;101049.81;5077301;28;20056;-74
2022/03/13 18:39:06;;;;;;;4.32;2.20;;;;;;;14.93;46.61;101054.84;5076198;28;20071;-71
2022/03/13 18:41:34;;;;;;;4.22;2.15;;;;;;;14.86;47.04;101059.88;5077327;28;20051;-72